sensor_id;sensor_type;location;lat;lon;timestamp;P1;durP1;ratioP1;P2;durP2;ratioP2
5912;SDS011;2982;42.684;23.356;2024-03-23T00:54:19;21.37;;;11.20;;
5912;SDS011;2982;42.684;23.356;2024-03-23T00:56:44;22.07;;;11.47;;
5912;SDS011;2982;42.684;23.356;2024-03-23T00:59:09;19.27;;;10.43;;
5912;SDS011;2982;42.684;23.356;2024-03-23T01:01:35;17.50;;;9.90;;
5912;SDS011;2982;42.684;23.356;2024-03-23T01:04:00;19.47;;;10.57;;
5912;SDS011;2982;42.684;23.356;2024-03-23T01:06:25;19.83;;;10.87;;
5912;SDS011;2982;42.684;23.356;2024-03-23T01:08:51;18.67;;;9.47;;
5912;SDS011;2982;42.684;23.356;2024-03-23T01:11:16;17.50;;;10.00;;
5912;SDS011;2982;42.684;23.356;2024-03-23T01:13:42;14.63;;;9.60;;
5912;SDS011;2982;42.684;23.356;2024-03-23T01:16:07;15.60;;;9.97;;
5912;SDS011;2982;42.684;23.356;2024-03-23T01:18:32;20.03;;;11.83;;
5912;SDS011;2982;42.684;23.356;2024-03-23T01:20:58;13.70;;;9.23;;
5912;SDS011;2982;42.684;23.356;2024-03-23T01:23:23;16.47;;;9.70;;
5912;SDS011;2982;42.684;23.356;2024-03-23T01:25:52;16.70;;;10.17;;
5912;SDS011;2982;42.684;23.356;2024-03-23T01:28:18;11.43;;;8.97;;
5912;SDS011;2982;42.684;23.356;2024-03-23T01:30:43;18.17;;;10.33;;
5912;SDS011;2982;42.684;23.356;2024-03-23T01:33:09;18.57;;;9.33;;
5912;SDS011;2982;42.684;23.356;2024-03-23T01:35:34;19.90;;;9.53;;
5912;SDS011;2982;42.684;23.356;2024-03-23T01:37:59;17.83;;;9.83;;
5912;SDS011;2982;42.684;23.356;2024-03-23T01:40:25;18.57;;;10.67;;
5912;SDS011;2982;42.684;23.356;2024-03-23T01:43:06;20.33;;;8.93;;
5912;SDS011;2982;42.684;23.356;2024-03-23T01:45:32;14.70;;;8.87;;
5912;SDS011;2982;42.684;23.356;2024-03-23T01:48:00;13.07;;;9.73;;
5912;SDS011;2982;42.684;23.356;2024-03-23T01:50:26;19.60;;;10.00;;
5912;SDS011;2982;42.684;23.356;2024-03-23T01:52:52;23.43;;;12.50;;
5912;SDS011;2982;42.684;23.356;2024-03-23T01:55:18;22.97;;;9.83;;
5912;SDS011;2982;42.684;23.356;2024-03-23T01:57:44;19.17;;;11.03;;
5912;SDS011;2982;42.684;23.356;2024-03-23T02:00:10;16.70;;;9.53;;
5912;SDS011;2982;42.684;23.356;2024-03-23T02:02:35;19.70;;;10.17;;
5912;SDS011;2982;42.684;23.356;2024-03-23T02:05:01;17.93;;;9.30;;
5912;SDS011;2982;42.684;23.356;2024-03-23T02:07:26;24.60;;;9.90;;
5912;SDS011;2982;42.684;23.356;2024-03-23T02:09:52;15.97;;;10.27;;
5912;SDS011;2982;42.684;23.356;2024-03-23T02:12:18;17.03;;;9.30;;
5912;SDS011;2982;42.684;23.356;2024-03-23T02:14:43;19.13;;;9.33;;
5912;SDS011;2982;42.684;23.356;2024-03-23T02:17:09;18.17;;;9.00;;
5912;SDS011;2982;42.684;23.356;2024-03-23T02:19:34;40.30;;;11.20;;
5912;SDS011;2982;42.684;23.356;2024-03-23T02:22:00;31.40;;;10.53;;
5912;SDS011;2982;42.684;23.356;2024-03-23T02:24:25;22.27;;;10.93;;
5912;SDS011;2982;42.684;23.356;2024-03-23T02:26:51;19.77;;;10.20;;
5912;SDS011;2982;42.684;23.356;2024-03-23T02:29:16;18.10;;;10.13;;
5912;SDS011;2982;42.684;23.356;2024-03-23T02:31:41;20.27;;;10.37;;
5912;SDS011;2982;42.684;23.356;2024-03-23T02:34:07;16.70;;;9.57;;
5912;SDS011;2982;42.684;23.356;2024-03-23T02:36:32;19.73;;;10.33;;
5912;SDS011;2982;42.684;23.356;2024-03-23T02:38:57;21.13;;;10.67;;
5912;SDS011;2982;42.684;23.356;2024-03-23T02:41:23;15.20;;;10.37;;
5912;SDS011;2982;42.684;23.356;2024-03-23T02:43:49;13.13;;;9.10;;
5912;SDS011;2982;42.684;23.356;2024-03-23T02:46:14;16.67;;;10.70;;
5912;SDS011;2982;42.684;23.356;2024-03-23T02:48:40;19.07;;;10.03;;
5912;SDS011;2982;42.684;23.356;2024-03-23T02:51:05;28.40;;;11.00;;
5912;SDS011;2982;42.684;23.356;2024-03-23T02:53:30;22.63;;;10.43;;
5912;SDS011;2982;42.684;23.356;2024-03-23T02:55:57;20.63;;;10.73;;
5912;SDS011;2982;42.684;23.356;2024-03-23T02:58:23;24.40;;;10.33;;
5912;SDS011;2982;42.684;23.356;2024-03-23T03:00:48;18.80;;;10.03;;
5912;SDS011;2982;42.684;23.356;2024-03-23T03:03:14;18.30;;;10.27;;
5912;SDS011;2982;42.684;23.356;2024-03-23T03:05:39;22.77;;;11.23;;
5912;SDS011;2982;42.684;23.356;2024-03-23T03:08:07;18.87;;;9.10;;
5912;SDS011;2982;42.684;23.356;2024-03-23T03:10:32;18.93;;;10.73;;
5912;SDS011;2982;42.684;23.356;2024-03-23T03:12:57;21.27;;;11.30;;
5912;SDS011;2982;42.684;23.356;2024-03-23T03:15:23;19.63;;;11.20;;
5912;SDS011;2982;42.684;23.356;2024-03-23T03:17:48;20.47;;;9.73;;
5912;SDS011;2982;42.684;23.356;2024-03-23T03:20:13;19.53;;;9.93;;
5912;SDS011;2982;42.684;23.356;2024-03-23T03:22:39;21.60;;;10.23;;
5912;SDS011;2982;42.684;23.356;2024-03-23T03:25:04;16.47;;;9.93;;
5912;SDS011;2982;42.684;23.356;2024-03-23T03:27:30;21.00;;;10.27;;
5912;SDS011;2982;42.684;23.356;2024-03-23T03:29:56;19.10;;;11.07;;
5912;SDS011;2982;42.684;23.356;2024-03-23T03:32:21;19.87;;;11.23;;
5912;SDS011;2982;42.684;23.356;2024-03-23T03:34:46;15.63;;;9.50;;
5912;SDS011;2982;42.684;23.356;2024-03-23T03:37:12;19.30;;;10.17;;
5912;SDS011;2982;42.684;23.356;2024-03-23T03:39:37;17.00;;;10.37;;
5912;SDS011;2982;42.684;23.356;2024-03-23T03:42:02;22.30;;;10.37;;
5912;SDS011;2982;42.684;23.356;2024-03-23T03:44:28;14.97;;;10.27;;
5912;SDS011;2982;42.684;23.356;2024-03-23T03:46:53;17.50;;;9.33;;
5912;SDS011;2982;42.684;23.356;2024-03-23T03:49:18;21.53;;;10.60;;
5912;SDS011;2982;42.684;23.356;2024-03-23T03:51:44;17.33;;;9.93;;
5912;SDS011;2982;42.684;23.356;2024-03-23T03:54:09;14.80;;;9.67;;
5912;SDS011;2982;42.684;23.356;2024-03-23T03:56:34;14.80;;;8.73;;
5912;SDS011;2982;42.684;23.356;2024-03-23T03:59:00;17.07;;;8.97;;
5912;SDS011;2982;42.684;23.356;2024-03-23T04:01:25;14.13;;;8.40;;
5912;SDS011;2982;42.684;23.356;2024-03-23T04:03:50;18.47;;;9.23;;
5912;SDS011;2982;42.684;23.356;2024-03-23T04:06:19;27.20;;;9.23;;
5912;SDS011;2982;42.684;23.356;2024-03-23T04:08:45;14.90;;;8.43;;
5912;SDS011;2982;42.684;23.356;2024-03-23T04:11:10;19.33;;;9.37;;
5912;SDS011;2982;42.684;23.356;2024-03-23T04:13:35;17.47;;;8.93;;
5912;SDS011;2982;42.684;23.356;2024-03-23T04:16:01;14.00;;;9.37;;
5912;SDS011;2982;42.684;23.356;2024-03-23T04:18:26;17.90;;;8.60;;
5912;SDS011;2982;42.684;23.356;2024-03-23T04:20:51;17.83;;;8.63;;
5912;SDS011;2982;42.684;23.356;2024-03-23T04:23:17;24.03;;;8.83;;
5912;SDS011;2982;42.684;23.356;2024-03-23T04:25:43;14.07;;;9.23;;
5912;SDS011;2982;42.684;23.356;2024-03-23T04:28:08;9.47;;;7.83;;
5912;SDS011;2982;42.684;23.356;2024-03-23T04:30:34;16.80;;;8.77;;
5912;SDS011;2982;42.684;23.356;2024-03-23T04:32:59;17.73;;;8.73;;
5912;SDS011;2982;42.684;23.356;2024-03-23T04:35:24;18.87;;;9.53;;
5912;SDS011;2982;42.684;23.356;2024-03-23T04:37:50;14.30;;;8.47;;
5912;SDS011;2982;42.684;23.356;2024-03-23T04:40:15;20.53;;;8.33;;
5912;SDS011;2982;42.684;23.356;2024-03-23T04:42:41;18.03;;;9.10;;
5912;SDS011;2982;42.684;23.356;2024-03-23T04:45:07;14.93;;;8.93;;
5912;SDS011;2982;42.684;23.356;2024-03-23T04:47:33;12.57;;;9.13;;
5912;SDS011;2982;42.684;23.356;2024-03-23T04:49:58;16.93;;;8.07;;
5912;SDS011;2982;42.684;23.356;2024-03-23T04:52:23;16.10;;;8.20;;
5912;SDS011;2982;42.684;23.356;2024-03-23T04:54:49;11.73;;;7.57;;
5912;SDS011;2982;42.684;23.356;2024-03-23T04:57:14;13.63;;;7.83;;
5912;SDS011;2982;42.684;23.356;2024-03-23T04:59:39;19.43;;;8.67;;
5912;SDS011;2982;42.684;23.356;2024-03-23T05:02:05;13.30;;;9.33;;
5912;SDS011;2982;42.684;23.356;2024-03-23T05:04:30;19.40;;;8.63;;
5912;SDS011;2982;42.684;23.356;2024-03-23T05:06:55;15.03;;;9.27;;
5912;SDS011;2982;42.684;23.356;2024-03-23T05:09:21;18.17;;;9.97;;
5912;SDS011;2982;42.684;23.356;2024-03-23T05:11:47;14.17;;;8.37;;
5912;SDS011;2982;42.684;23.356;2024-03-23T05:14:15;18.90;;;8.97;;
5912;SDS011;2982;42.684;23.356;2024-03-23T05:16:40;18.13;;;8.95;;
5912;SDS011;2982;42.684;23.356;2024-03-23T05:19:06;15.87;;;6.97;;
5912;SDS011;2982;42.684;23.356;2024-03-23T05:21:31;12.60;;;8.75;;
5912;SDS011;2982;42.684;23.356;2024-03-23T05:23:56;10.18;;;6.50;;
5912;SDS011;2982;42.684;23.356;2024-03-23T05:26:22;12.38;;;7.60;;
5912;SDS011;2982;42.684;23.356;2024-03-23T05:28:47;17.58;;;8.05;;
5912;SDS011;2982;42.684;23.356;2024-03-23T05:31:22;10.98;;;5.60;;
5912;SDS011;2982;42.684;23.356;2024-03-23T05:33:50;6.43;;;5.75;;
5912;SDS011;2982;42.684;23.356;2024-03-23T05:36:17;6.38;;;5.47;;
5912;SDS011;2982;42.684;23.356;2024-03-23T05:38:42;8.00;;;5.93;;
5912;SDS011;2982;42.684;23.356;2024-03-23T05:41:08;10.77;;;5.97;;
5912;SDS011;2982;42.684;23.356;2024-03-23T05:43:33;7.30;;;6.07;;
5912;SDS011;2982;42.684;23.356;2024-03-23T05:45:59;7.38;;;5.70;;
5912;SDS011;2982;42.684;23.356;2024-03-23T05:48:25;8.90;;;5.57;;
5912;SDS011;2982;42.684;23.356;2024-03-23T05:50:51;8.30;;;5.97;;
5912;SDS011;2982;42.684;23.356;2024-03-23T05:53:17;10.30;;;6.63;;
5912;SDS011;2982;42.684;23.356;2024-03-23T05:55:44;7.65;;;6.82;;
5912;SDS011;2982;42.684;23.356;2024-03-23T05:58:10;13.10;;;6.68;;
5912;SDS011;2982;42.684;23.356;2024-03-23T06:00:35;10.32;;;6.55;;
5912;SDS011;2982;42.684;23.356;2024-03-23T06:03:01;10.88;;;5.93;;
5912;SDS011;2982;42.684;23.356;2024-03-23T06:05:26;10.38;;;5.75;;
5912;SDS011;2982;42.684;23.356;2024-03-23T06:07:52;8.35;;;6.10;;
5912;SDS011;2982;42.684;23.356;2024-03-23T06:10:17;10.65;;;6.43;;
5912;SDS011;2982;42.684;23.356;2024-03-23T06:12:42;21.35;;;7.45;;
5912;SDS011;2982;42.684;23.356;2024-03-23T06:15:08;28.98;;;6.78;;
5912;SDS011;2982;42.684;23.356;2024-03-23T06:17:34;16.02;;;7.00;;
5912;SDS011;2982;42.684;23.356;2024-03-23T06:19:59;13.65;;;7.22;;
5912;SDS011;2982;42.684;23.356;2024-03-23T06:22:24;8.65;;;5.85;;
5912;SDS011;2982;42.684;23.356;2024-03-23T06:24:50;10.60;;;6.25;;
5912;SDS011;2982;42.684;23.356;2024-03-23T06:27:15;9.25;;;7.20;;
5912;SDS011;2982;42.684;23.356;2024-03-23T06:29:40;7.03;;;6.28;;
5912;SDS011;2982;42.684;23.356;2024-03-23T06:32:06;7.68;;;5.95;;
5912;SDS011;2982;42.684;23.356;2024-03-23T06:34:31;10.18;;;6.07;;
5912;SDS011;2982;42.684;23.356;2024-03-23T06:36:57;10.00;;;6.88;;
5912;SDS011;2982;42.684;23.356;2024-03-23T06:39:22;8.05;;;6.53;;
5912;SDS011;2982;42.684;23.356;2024-03-23T06:41:54;12.18;;;8.15;;
5912;SDS011;2982;42.684;23.356;2024-03-23T06:44:20;8.10;;;6.97;;
5912;SDS011;2982;42.684;23.356;2024-03-23T06:46:46;15.30;;;6.50;;
5912;SDS011;2982;42.684;23.356;2024-03-23T06:49:12;10.18;;;6.97;;
5912;SDS011;2982;42.684;23.356;2024-03-23T06:51:37;12.35;;;7.63;;
5912;SDS011;2982;42.684;23.356;2024-03-23T06:54:03;11.93;;;8.10;;
5912;SDS011;2982;42.684;23.356;2024-03-23T06:56:29;14.07;;;7.20;;
5912;SDS011;2982;42.684;23.356;2024-03-23T06:58:54;10.80;;;7.65;;
5912;SDS011;2982;42.684;23.356;2024-03-23T07:01:20;10.25;;;8.25;;
5912;SDS011;2982;42.684;23.356;2024-03-23T07:03:45;14.85;;;8.68;;
5912;SDS011;2982;42.684;23.356;2024-03-23T07:06:10;11.55;;;8.45;;
5912;SDS011;2982;42.684;23.356;2024-03-23T07:08:36;17.52;;;8.60;;
5912;SDS011;2982;42.684;23.356;2024-03-23T07:11:01;11.18;;;7.95;;
5912;SDS011;2982;42.684;23.356;2024-03-23T07:13:26;14.32;;;8.07;;
5912;SDS011;2982;42.684;23.356;2024-03-23T07:15:52;18.60;;;7.72;;
5912;SDS011;2982;42.684;23.356;2024-03-23T07:18:17;11.45;;;7.97;;
5912;SDS011;2982;42.684;23.356;2024-03-23T07:20:51;12.65;;;8.68;;
5912;SDS011;2982;42.684;23.356;2024-03-23T07:23:17;12.18;;;8.35;;
5912;SDS011;2982;42.684;23.356;2024-03-23T07:25:43;12.05;;;7.90;;
5912;SDS011;2982;42.684;23.356;2024-03-23T07:28:08;11.10;;;8.85;;
5912;SDS011;2982;42.684;23.356;2024-03-23T07:30:33;13.35;;;8.07;;
5912;SDS011;2982;42.684;23.356;2024-03-23T07:32:59;21.70;;;8.25;;
5912;SDS011;2982;42.684;23.356;2024-03-23T07:35:24;11.63;;;7.75;;
5912;SDS011;2982;42.684;23.356;2024-03-23T07:37:49;12.98;;;8.20;;
5912;SDS011;2982;42.684;23.356;2024-03-23T07:40:15;11.65;;;9.10;;
5912;SDS011;2982;42.684;23.356;2024-03-23T07:42:40;14.07;;;8.63;;
5912;SDS011;2982;42.684;23.356;2024-03-23T07:45:05;14.65;;;8.48;;
5912;SDS011;2982;42.684;23.356;2024-03-23T07:47:31;16.23;;;9.38;;
5912;SDS011;2982;42.684;23.356;2024-03-23T07:49:56;16.00;;;7.90;;
5912;SDS011;2982;42.684;23.356;2024-03-23T07:52:22;11.38;;;9.05;;
5912;SDS011;2982;42.684;23.356;2024-03-23T07:54:47;21.05;;;10.52;;
5912;SDS011;2982;42.684;23.356;2024-03-23T07:57:12;13.88;;;10.30;;
5912;SDS011;2982;42.684;23.356;2024-03-23T07:59:38;11.30;;;9.48;;
5912;SDS011;2982;42.684;23.356;2024-03-23T08:02:03;11.13;;;8.85;;
5912;SDS011;2982;42.684;23.356;2024-03-23T08:04:29;18.13;;;9.98;;
5912;SDS011;2982;42.684;23.356;2024-03-23T08:06:56;17.27;;;10.88;;
5912;SDS011;2982;42.684;23.356;2024-03-23T08:09:22;14.57;;;9.35;;
5912;SDS011;2982;42.684;23.356;2024-03-23T08:11:47;15.40;;;10.38;;
5912;SDS011;2982;42.684;23.356;2024-03-23T08:14:12;15.02;;;10.35;;
5912;SDS011;2982;42.684;23.356;2024-03-23T08:16:38;15.90;;;9.75;;
5912;SDS011;2982;42.684;23.356;2024-03-23T08:19:03;10.77;;;8.90;;
5912;SDS011;2982;42.684;23.356;2024-03-23T08:21:28;10.85;;;8.30;;
5912;SDS011;2982;42.684;23.356;2024-03-23T08:23:54;11.63;;;8.90;;
5912;SDS011;2982;42.684;23.356;2024-03-23T08:26:19;14.88;;;9.05;;
5912;SDS011;2982;42.684;23.356;2024-03-23T08:28:44;11.70;;;9.18;;
5912;SDS011;2982;42.684;23.356;2024-03-23T08:31:11;14.30;;;9.50;;
5912;SDS011;2982;42.684;23.356;2024-03-23T08:33:37;13.23;;;9.52;;
5912;SDS011;2982;42.684;23.356;2024-03-23T08:36:04;13.93;;;8.82;;
5912;SDS011;2982;42.684;23.356;2024-03-23T08:38:31;13.68;;;9.88;;
5912;SDS011;2982;42.684;23.356;2024-03-23T08:43:30;12.35;;;9.25;;
5912;SDS011;2982;42.684;23.356;2024-03-23T08:46:29;16.15;;;8.93;;
5912;SDS011;2982;42.684;23.356;2024-03-23T08:48:48;11.15;;;8.02;;
5912;SDS011;2982;42.684;23.356;2024-03-23T08:51:14;11.35;;;8.75;;
5912;SDS011;2982;42.684;23.356;2024-03-23T08:53:40;16.80;;;9.18;;
5912;SDS011;2982;42.684;23.356;2024-03-23T08:56:06;17.38;;;9.40;;
5912;SDS011;2982;42.684;23.356;2024-03-23T08:58:33;13.73;;;8.75;;
5912;SDS011;2982;42.684;23.356;2024-03-23T09:01:09;14.50;;;8.68;;
5912;SDS011;2982;42.684;23.356;2024-03-23T09:03:36;12.13;;;9.18;;
5912;SDS011;2982;42.684;23.356;2024-03-23T09:06:02;16.13;;;10.00;;
5912;SDS011;2982;42.684;23.356;2024-03-23T09:08:31;10.82;;;8.32;;
5912;SDS011;2982;42.684;23.356;2024-03-23T09:10:56;15.75;;;9.02;;
5912;SDS011;2982;42.684;23.356;2024-03-23T09:13:22;12.00;;;8.02;;
5912;SDS011;2982;42.684;23.356;2024-03-23T09:15:51;9.38;;;7.82;;
5912;SDS011;2982;42.684;23.356;2024-03-23T09:18:17;12.10;;;8.20;;
5912;SDS011;2982;42.684;23.356;2024-03-23T09:20:42;12.95;;;7.95;;
5912;SDS011;2982;42.684;23.356;2024-03-23T09:23:08;10.32;;;8.77;;
5912;SDS011;2982;42.684;23.356;2024-03-23T09:25:37;12.50;;;7.80;;
5912;SDS011;2982;42.684;23.356;2024-03-23T09:28:05;14.50;;;10.48;;
5912;SDS011;2982;42.684;23.356;2024-03-23T09:30:32;15.65;;;8.35;;
5912;SDS011;2982;42.684;23.356;2024-03-23T09:32:58;13.70;;;8.80;;
5912;SDS011;2982;42.684;23.356;2024-03-23T09:35:23;11.48;;;7.88;;
5912;SDS011;2982;42.684;23.356;2024-03-23T09:37:48;11.68;;;9.20;;
5912;SDS011;2982;42.684;23.356;2024-03-23T09:40:14;16.35;;;8.93;;
5912;SDS011;2982;42.684;23.356;2024-03-23T09:42:39;10.43;;;8.18;;
5912;SDS011;2982;42.684;23.356;2024-03-23T09:45:05;11.65;;;7.85;;
5912;SDS011;2982;42.684;23.356;2024-03-23T09:47:36;16.63;;;8.27;;
5912;SDS011;2982;42.684;23.356;2024-03-23T09:50:02;12.32;;;7.72;;
5912;SDS011;2982;42.684;23.356;2024-03-23T09:52:28;10.02;;;7.28;;
5912;SDS011;2982;42.684;23.356;2024-03-23T09:54:53;11.68;;;8.18;;
5912;SDS011;2982;42.684;23.356;2024-03-23T09:57:18;8.55;;;7.70;;
5912;SDS011;2982;42.684;23.356;2024-03-23T09:59:44;9.93;;;7.53;;
5912;SDS011;2982;42.684;23.356;2024-03-23T10:02:09;13.38;;;8.07;;
5912;SDS011;2982;42.684;23.356;2024-03-23T10:04:35;10.07;;;7.20;;
5912;SDS011;2982;42.684;23.356;2024-03-23T10:07:11;10.35;;;7.50;;
5912;SDS011;2982;42.684;23.356;2024-03-23T10:09:40;15.30;;;7.65;;
5912;SDS011;2982;42.684;23.356;2024-03-23T10:12:12;9.93;;;7.10;;
5912;SDS011;2982;42.684;23.356;2024-03-23T10:14:40;6.88;;;6.15;;
5912;SDS011;2982;42.684;23.356;2024-03-23T10:19:41;12.80;;;7.57;;
5912;SDS011;2982;42.684;23.356;2024-03-23T10:22:07;9.10;;;7.40;;
5912;SDS011;2982;42.684;23.356;2024-03-23T10:24:32;14.50;;;7.07;;
5912;SDS011;2982;42.684;23.356;2024-03-23T10:26:57;6.35;;;5.63;;
5912;SDS011;2982;42.684;23.356;2024-03-23T10:29:23;8.32;;;6.57;;
5912;SDS011;2982;42.684;23.356;2024-03-23T10:31:48;7.40;;;6.75;;
5912;SDS011;2982;42.684;23.356;2024-03-23T10:34:13;8.88;;;6.10;;
5912;SDS011;2982;42.684;23.356;2024-03-23T10:36:39;9.25;;;6.78;;
5912;SDS011;2982;42.684;23.356;2024-03-23T10:39:06;8.65;;;6.35;;
5912;SDS011;2982;42.684;23.356;2024-03-23T10:41:32;9.82;;;7.13;;
5912;SDS011;2982;42.684;23.356;2024-03-23T10:43:59;9.40;;;6.70;;
5912;SDS011;2982;42.684;23.356;2024-03-23T10:46:26;9.30;;;7.57;;
5912;SDS011;2982;42.684;23.356;2024-03-23T10:48:52;11.23;;;6.88;;
5912;SDS011;2982;42.684;23.356;2024-03-23T10:51:17;8.73;;;6.90;;
5912;SDS011;2982;42.684;23.356;2024-03-23T10:53:43;8.38;;;6.65;;
5912;SDS011;2982;42.684;23.356;2024-03-23T10:56:11;8.20;;;5.72;;
5912;SDS011;2982;42.684;23.356;2024-03-23T10:58:43;5.63;;;5.22;;
5912;SDS011;2982;42.684;23.356;2024-03-23T11:01:11;5.30;;;4.80;;
5912;SDS011;2982;42.684;23.356;2024-03-23T11:03:44;5.93;;;5.43;;
5912;SDS011;2982;42.684;23.356;2024-03-23T11:06:10;9.48;;;5.57;;
5912;SDS011;2982;42.684;23.356;2024-03-23T11:08:36;9.27;;;5.88;;
5912;SDS011;2982;42.684;23.356;2024-03-23T11:11:18;6.25;;;5.65;;
5912;SDS011;2982;42.684;23.356;2024-03-23T11:13:49;9.18;;;5.93;;
5912;SDS011;2982;42.684;23.356;2024-03-23T11:16:26;12.98;;;5.55;;
5912;SDS011;2982;42.684;23.356;2024-03-23T11:18:52;10.80;;;6.05;;
5912;SDS011;2982;42.684;23.356;2024-03-23T11:24:18;7.78;;;5.15;;
5912;SDS011;2982;42.684;23.356;2024-03-23T11:26:45;5.80;;;4.78;;
5912;SDS011;2982;42.684;23.356;2024-03-23T11:29:11;10.38;;;5.32;;
5912;SDS011;2982;42.684;23.356;2024-03-23T11:31:37;11.07;;;6.13;;
5912;SDS011;2982;42.684;23.356;2024-03-23T11:34:25;9.23;;;5.47;;
5912;SDS011;2982;42.684;23.356;2024-03-23T11:36:51;6.82;;;5.18;;
5912;SDS011;2982;42.684;23.356;2024-03-23T11:39:29;5.10;;;4.57;;
5912;SDS011;2982;42.684;23.356;2024-03-23T11:41:56;8.70;;;5.43;;
5912;SDS011;2982;42.684;23.356;2024-03-23T11:44:26;20.08;;;5.32;;
5912;SDS011;2982;42.684;23.356;2024-03-23T11:46:52;10.10;;;5.50;;
5912;SDS011;2982;42.684;23.356;2024-03-23T11:49:21;6.72;;;5.05;;
5912;SDS011;2982;42.684;23.356;2024-03-23T11:51:48;6.88;;;4.53;;
5912;SDS011;2982;42.684;23.356;2024-03-23T11:54:13;10.25;;;4.63;;
5912;SDS011;2982;42.684;23.356;2024-03-23T11:56:39;10.00;;;4.97;;
5912;SDS011;2982;42.684;23.356;2024-03-23T11:59:06;5.45;;;4.95;;
5912;SDS011;2982;42.684;23.356;2024-03-23T12:01:32;7.03;;;5.28;;
5912;SDS011;2982;42.684;23.356;2024-03-23T12:03:57;8.60;;;5.53;;
5912;SDS011;2982;42.684;23.356;2024-03-23T12:06:22;6.97;;;4.65;;
5912;SDS011;2982;42.684;23.356;2024-03-23T12:08:49;6.63;;;4.80;;
5912;SDS011;2982;42.684;23.356;2024-03-23T12:11:17;8.27;;;5.38;;
5912;SDS011;2982;42.684;23.356;2024-03-23T12:13:43;11.10;;;5.30;;
5912;SDS011;2982;42.684;23.356;2024-03-23T12:18:35;8.10;;;4.38;;
5912;SDS011;2982;42.684;23.356;2024-03-23T12:21:01;7.55;;;4.40;;
5912;SDS011;2982;42.684;23.356;2024-03-23T12:23:28;7.70;;;4.40;;
5912;SDS011;2982;42.684;23.356;2024-03-23T12:25:58;8.13;;;4.95;;
5912;SDS011;2982;42.684;23.356;2024-03-23T12:28:24;5.43;;;4.80;;
5912;SDS011;2982;42.684;23.356;2024-03-23T12:30:49;5.55;;;3.63;;
5912;SDS011;2982;42.684;23.356;2024-03-23T12:33:15;3.40;;;2.97;;
5912;SDS011;2982;42.684;23.356;2024-03-23T12:35:40;4.25;;;3.33;;
5912;SDS011;2982;42.684;23.356;2024-03-23T12:38:05;4.72;;;3.47;;
5912;SDS011;2982;42.684;23.356;2024-03-23T12:40:31;4.15;;;3.20;;
5912;SDS011;2982;42.684;23.356;2024-03-23T12:42:56;6.65;;;3.67;;
5912;SDS011;2982;42.684;23.356;2024-03-23T12:45:22;3.08;;;2.38;;
5912;SDS011;2982;42.684;23.356;2024-03-23T12:47:47;3.92;;;3.45;;
5912;SDS011;2982;42.684;23.356;2024-03-23T12:50:13;4.65;;;2.88;;
5912;SDS011;2982;42.684;23.356;2024-03-23T12:52:38;5.75;;;3.50;;
5912;SDS011;2982;42.684;23.356;2024-03-23T12:55:04;4.93;;;3.10;;
5912;SDS011;2982;42.684;23.356;2024-03-23T12:57:30;2.97;;;2.78;;
5912;SDS011;2982;42.684;23.356;2024-03-23T12:59:55;5.13;;;4.15;;
5912;SDS011;2982;42.684;23.356;2024-03-23T13:02:20;4.25;;;2.80;;
5912;SDS011;2982;42.684;23.356;2024-03-23T13:04:46;3.05;;;2.75;;
5912;SDS011;2982;42.684;23.356;2024-03-23T13:07:14;3.42;;;2.90;;
5912;SDS011;2982;42.684;23.356;2024-03-23T13:09:42;4.65;;;3.30;;
5912;SDS011;2982;42.684;23.356;2024-03-23T13:12:08;5.78;;;2.55;;
5912;SDS011;2982;42.684;23.356;2024-03-23T13:14:34;4.22;;;1.55;;
5912;SDS011;2982;42.684;23.356;2024-03-23T13:17:00;1.20;;;1.17;;
5912;SDS011;2982;42.684;23.356;2024-03-23T13:19:25;3.10;;;2.28;;
5912;SDS011;2982;42.684;23.356;2024-03-23T13:21:51;5.93;;;3.70;;
5912;SDS011;2982;42.684;23.356;2024-03-23T13:24:17;3.47;;;2.95;;
5912;SDS011;2982;42.684;23.356;2024-03-23T13:26:42;3.30;;;3.10;;
5912;SDS011;2982;42.684;23.356;2024-03-23T13:29:07;4.80;;;3.30;;
5912;SDS011;2982;42.684;23.356;2024-03-23T13:31:33;3.42;;;3.13;;
5912;SDS011;2982;42.684;23.356;2024-03-23T13:33:58;4.47;;;2.75;;
5912;SDS011;2982;42.684;23.356;2024-03-23T13:36:23;2.55;;;2.35;;
5912;SDS011;2982;42.684;23.356;2024-03-23T13:38:49;5.82;;;2.20;;
5912;SDS011;2982;42.684;23.356;2024-03-23T13:41:15;2.10;;;1.73;;
5912;SDS011;2982;42.684;23.356;2024-03-23T13:43:41;0.73;;;0.70;;
5912;SDS011;2982;42.684;23.356;2024-03-23T13:46:06;1.80;;;0.68;;
5912;SDS011;2982;42.684;23.356;2024-03-23T13:48:31;0.88;;;0.68;;
5912;SDS011;2982;42.684;23.356;2024-03-23T13:51:00;2.00;;;0.50;;
5912;SDS011;2982;42.684;23.356;2024-03-23T13:53:29;1.42;;;0.60;;
5912;SDS011;2982;42.684;23.356;2024-03-23T13:55:55;1.70;;;0.77;;
5912;SDS011;2982;42.684;23.356;2024-03-23T13:58:20;0.60;;;0.50;;
5912;SDS011;2982;42.684;23.356;2024-03-23T14:00:46;0.75;;;0.65;;
5912;SDS011;2982;42.684;23.356;2024-03-23T14:03:12;4.38;;;1.13;;
5912;SDS011;2982;42.684;23.356;2024-03-23T14:05:38;0.98;;;0.82;;
5912;SDS011;2982;42.684;23.356;2024-03-23T14:08:07;1.98;;;0.60;;
5912;SDS011;2982;42.684;23.356;2024-03-23T14:10:33;0.90;;;0.80;;
5912;SDS011;2982;42.684;23.356;2024-03-23T14:12:59;0.52;;;0.52;;
5912;SDS011;2982;42.684;23.356;2024-03-23T14:15:24;1.83;;;1.25;;
5912;SDS011;2982;42.684;23.356;2024-03-23T14:17:50;3.13;;;0.70;;
5912;SDS011;2982;42.684;23.356;2024-03-23T14:20:16;2.38;;;0.80;;
5912;SDS011;2982;42.684;23.356;2024-03-23T14:22:41;0.68;;;0.68;;
5912;SDS011;2982;42.684;23.356;2024-03-23T14:25:07;0.73;;;0.70;;
5912;SDS011;2982;42.684;23.356;2024-03-23T14:27:32;2.17;;;1.05;;
5912;SDS011;2982;42.684;23.356;2024-03-23T14:29:57;7.10;;;1.05;;
5912;SDS011;2982;42.684;23.356;2024-03-23T14:32:23;0.73;;;0.65;;
5912;SDS011;2982;42.684;23.356;2024-03-23T14:34:48;2.38;;;0.90;;
5912;SDS011;2982;42.684;23.356;2024-03-23T14:39:58;2.22;;;0.80;;
5912;SDS011;2982;42.684;23.356;2024-03-23T14:42:23;0.50;;;0.50;;
5912;SDS011;2982;42.684;23.356;2024-03-23T14:44:50;0.90;;;0.80;;
5912;SDS011;2982;42.684;23.356;2024-03-23T14:47:15;4.22;;;0.63;;
5912;SDS011;2982;42.684;23.356;2024-03-23T14:49:41;0.80;;;0.80;;
5912;SDS011;2982;42.684;23.356;2024-03-23T14:52:06;0.88;;;0.85;;
5912;SDS011;2982;42.684;23.356;2024-03-23T14:54:33;2.25;;;0.60;;
5912;SDS011;2982;42.684;23.356;2024-03-23T14:56:58;0.73;;;0.60;;
5912;SDS011;2982;42.684;23.356;2024-03-23T14:59:24;1.67;;;0.68;;
5912;SDS011;2982;42.684;23.356;2024-03-23T15:01:49;1.63;;;0.85;;
5912;SDS011;2982;42.684;23.356;2024-03-23T15:04:14;0.90;;;0.73;;
5912;SDS011;2982;42.684;23.356;2024-03-23T15:06:40;4.75;;;0.80;;
5912;SDS011;2982;42.684;23.356;2024-03-23T15:09:05;0.70;;;0.70;;
5912;SDS011;2982;42.684;23.356;2024-03-23T15:11:30;1.45;;;1.10;;
5912;SDS011;2982;42.684;23.356;2024-03-23T15:13:56;1.33;;;1.23;;
5912;SDS011;2982;42.684;23.356;2024-03-23T15:16:23;1.92;;;1.80;;
5912;SDS011;2982;42.684;23.356;2024-03-23T15:18:48;5.20;;;2.20;;
5912;SDS011;2982;42.684;23.356;2024-03-23T15:21:14;2.53;;;1.30;;
5912;SDS011;2982;42.684;23.356;2024-03-23T15:23:39;1.58;;;1.15;;
5912;SDS011;2982;42.684;23.356;2024-03-23T15:26:04;1.70;;;1.45;;
5912;SDS011;2982;42.684;23.356;2024-03-23T15:28:30;1.38;;;1.20;;
5912;SDS011;2982;42.684;23.356;2024-03-23T15:30:58;1.75;;;1.30;;
5912;SDS011;2982;42.684;23.356;2024-03-23T15:33:23;1.30;;;1.20;;
5912;SDS011;2982;42.684;23.356;2024-03-23T15:35:49;1.60;;;1.50;;
5912;SDS011;2982;42.684;23.356;2024-03-23T15:38:14;1.27;;;1.10;;
5912;SDS011;2982;42.684;23.356;2024-03-23T15:40:39;2.58;;;1.08;;
5912;SDS011;2982;42.684;23.356;2024-03-23T15:43:05;4.53;;;0.95;;
5912;SDS011;2982;42.684;23.356;2024-03-23T15:45:30;2.08;;;1.00;;
5912;SDS011;2982;42.684;23.356;2024-03-23T15:47:55;1.50;;;0.80;;
5912;SDS011;2982;42.684;23.356;2024-03-23T15:50:21;3.25;;;1.08;;